Weather reports worldwide

Advertisment
Concordia Sagittaria, Italy (16107): temperature & dewpoint: 17.01.2019 03:00:00 - 23.01.2019 03:00:00 (CET)Concordia Sagittaria, Italy (16107): wind speed: 17.01.2019 03:00:00 - 23.01.2019 03:00:00 (CET)Concordia Sagittaria, Italy (16107): wind direction: 17.01.2019 03:00:00 - 23.01.2019 03:00:00 (CET)Concordia Sagittaria, Italy (16107): reduced air pressure: 17.01.2019 03:00:00 - 23.01.2019 03:00:00 (CET)Concordia Sagittaria, Italy (16107): precipitation: 17.01.2019 03:00:00 - 23.01.2019 03:00:00 (CET)
Date & Time tt [°C] td [°C] ff [km/h] ff [kn] dd ppp [hPa] rr [mm]
23.01.2019 03:00:00 0,4 -1,1 24 13 E 1007,1 -
23.01.2019 02:00:00 2,3 -2,3 13 7 E 1007,5 -
23.01.2019 01:00:00 1,9 -1,9 4 2 E 1007,6 0,0
23.01.2019 00:00:00 1,7 -2,1 2 1 NE 1007,8 -
22.01.2019 23:00:00 2,2 -1,8 9 5 NE 1008,1 -
22.01.2019 22:00:00 2,7 -2,1 13 7 ENE 1008,5 -
22.01.2019 21:00:00 3,2 -1,8 15 8 ENE 1008,9 -
22.01.2019 20:00:00 3,7 -1,7 24 13 E 1009,1 -
22.01.2019 19:00:00 4,4 -1,5 15 8 ENE 1009,3 0,0
22.01.2019 18:00:00 5,7 -1,1 13 7 NNE 1009,7 -
22.01.2019 17:00:00 6,0 -1,3 18 10 NE 1010,2 -
22.01.2019 16:00:00 6,3 -0,8 18 10 NNE 1011,0 -
22.01.2019 15:00:00 6,5 -0,8 21 11 NNE 1012,3 -
22.01.2019 14:00:00 4,3 -1,4 21 11 N 1013,9 -
22.01.2019 13:00:00 3,7 -0,4 22 12 NNE 1015,0 0,0
22.01.2019 12:00:00 1,7 -0,6 8 4 N 1015,6 -
22.01.2019 11:00:00 -0,3 -1,9 4 2 NNE 1016,0 -
22.01.2019 10:00:00 -0,8 -2,9 8 4 NNE 1016,3 -
22.01.2019 09:00:00 -0,2 -2,5 11 6 N 1016,3 -
22.01.2019 08:00:00 -0,1 -2,2 15 8 NNE 1016,7 -
22.01.2019 07:00:00 -0,6 -2,5 8 4 N 1017,4 0,0
22.01.2019 06:00:00 -0,7 -2,5 4 2 N 1017,9 -
22.01.2019 05:00:00 -1,6 -3,2 4 2 N 1018,9 -
22.01.2019 04:00:00 -0,2 -2,3 4 2 N 1019,5 -
22.01.2019 03:00:00 0,0 -2,3 5 3 NNW 1020,1 -
22.01.2019 02:00:00 0,4 -2,0 5 3 N 1020,5 -
22.01.2019 01:00:00 0,9 -1,5 11 6 N 1020,6 0,0
22.01.2019 00:00:00 0,8 -1,8 9 5 NNE 1021,0 -
21.01.2019 23:00:00 1,3 -1,8 8 4 N 1021,2 -
21.01.2019 22:00:00 1,7 -1,8 5 3 N 1021,3 -
21.01.2019 21:00:00 2,1 -1,4 8 4 N 1021,3 -
21.01.2019 20:00:00 2,6 -1,4 5 3 NE 1021,1 -
21.01.2019 19:00:00 4,5 -0,6 5 3 ENE 1021,0 0,0
21.01.2019 18:00:00 5,9 -0,3 13 7 ENE 1020,9 -
21.01.2019 17:00:00 6,5 0,3 16 9 NE 1021,0 -
21.01.2019 16:00:00 7,1 1,1 15 8 NNE 1021,3 -
21.01.2019 15:00:00 6,6 0,6 13 7 NNE 1022,0 -
21.01.2019 14:00:00 5,2 0,3 13 7 N 1022,6 -
21.01.2019 13:00:00 3,8 -0,3 13 7 NNE 1023,2 0,0
21.01.2019 12:00:00 2,8 -0,9 13 7 NNE 1023,1 -
21.01.2019 11:00:00 1,9 -1,1 11 6 N 1022,7 -
21.01.2019 10:00:00 1,9 -1,1 9 5 NNE 1022,3 -
21.01.2019 09:00:00 2,1 -0,9 11 6 N 1022,0 -
21.01.2019 08:00:00 2,2 -0,8 15 8 N 1021,6 -
21.01.2019 07:00:00 1,9 -0,2 13 7 N 1021,7 0,0
21.01.2019 06:00:00 1,5 0,0 11 6 N 1021,6 -
21.01.2019 05:00:00 1,4 -0,1 11 6 N 1021,9 -
21.01.2019 04:00:00 1,1 -0,5 9 5 NW 1021,9 -
21.01.2019 03:00:00 1,1 -0,4 5 3 N 1022,3 -
21.01.2019 02:00:00 1,0 -0,5 8 4 NNW 1022,4 -
21.01.2019 01:00:00 1,0 -0,5 0 0 N 1022,4 0,0
21.01.2019 00:00:00 0,3 -1,2 4 2 NW 1021,9 -
20.01.2019 23:00:00 0,5 -1,0 4 2 W 1021,6 -
20.01.2019 22:00:00 0,1 -1,4 4 2 W 1021,3 -
20.01.2019 21:00:00 0,5 -1,6 0 0 N 1021,0 -
20.01.2019 20:00:00 1,5 -2,0 4 2 W 1020,6 -
20.01.2019 19:00:00 3,8 -2,7 4 2 WSW 1020,1 0,0
20.01.2019 18:00:00 7,3 -1,0 2 1 SW 1019,9 -
20.01.2019 17:00:00 7,1 -1,2 4 2 WNW 1019,7 -
20.01.2019 16:00:00 7,1 -0,9 5 3 NW 1020,0 -
20.01.2019 15:00:00 6,0 -0,4 5 3 NNW 1020,3 -
20.01.2019 14:00:00 4,1 -0,9 8 4 N 1020,7 -
20.01.2019 13:00:00 3,3 -1,0 8 4 NNW 1021,0 0,0
20.01.2019 12:00:00 1,4 -0,9 8 4 NNW 1020,7 -
20.01.2019 11:00:00 -0,4 -1,9 5 3 N 1020,4 -
20.01.2019 10:00:00 -1,3 -2,8 8 4 NNW 1019,9 -
20.01.2019 09:00:00 -1,0 -2,5 5 3 NNW 1019,8 -
20.01.2019 08:00:00 -1,2 -2,8 5 3 N 1019,7 -
20.01.2019 07:00:00 -0,4 -2,3 5 3 N 1019,8 0,0
20.01.2019 06:00:00 -0,6 -2,4 4 2 NNW 1020,0 -
20.01.2019 05:00:00 -0,3 -2,7 4 2 NNW 1020,3 -
20.01.2019 04:00:00 0,5 -2,3 4 2 NNW 1020,2 -
20.01.2019 03:00:00 0,9 -1,7 8 4 NNW 1020,3 -
20.01.2019 02:00:00 1,2 -1,7 8 4 N 1020,8 -
20.01.2019 01:00:00 1,4 -1,5 8 4 NW 1020,9 0,0
20.01.2019 00:00:00 1,7 -1,1 8 4 N 1021,0 -
19.01.2019 23:00:00 1,3 -1,3 8 4 NNW 1020,9 -
19.01.2019 22:00:00 1,6 -1,2 8 4 NNW 1020,9 -
19.01.2019 21:00:00 1,9 -1,1 5 3 NW 1021,0 -
19.01.2019 20:00:00 2,4 -1,1 4 2 ENE 1020,8 -
19.01.2019 19:00:00 3,8 -0,7 8 4 N 1020,6 0,0
19.01.2019 18:00:00 5,0 0,3 9 5 NE 1020,6 -
19.01.2019 17:00:00 5,4 0,9 11 6 NNE 1020,9 -
19.01.2019 16:00:00 5,3 0,6 13 7 NE 1021,3 -
19.01.2019 15:00:00 5,1 -0,2 13 7 NNE 1021,9 -
19.01.2019 14:00:00 5,0 -0,1 28 15 NNE 1022,5 -
19.01.2019 13:00:00 4,6 0,3 13 7 NNE 1022,9 0,0
19.01.2019 12:00:00 3,8 0,1 16 9 NNE 1022,7 -
19.01.2019 11:00:00 3,0 -0,3 13 7 NNE 1022,4 -
19.01.2019 10:00:00 2,3 -0,7 15 8 NNE 1022,2 -
19.01.2019 09:00:00 2,4 -0,4 15 8 NNE 1022,3 -
19.01.2019 08:00:00 2,4 -0,6 15 8 NNE 1022,3 -
19.01.2019 07:00:00 2,0 -1,0 11 6 N 1022,6 0,0
19.01.2019 06:00:00 2,9 -0,4 15 8 N 1022,7 -
19.01.2019 05:00:00 3,1 -0,2 11 6 NNE 1023,1 -
19.01.2019 04:00:00 3,1 -0,1 15 8 N 1023,0 -
19.01.2019 03:00:00 3,2 0,0 15 8 N 1023,1 -
19.01.2019 02:00:00 3,2 -0,5 11 6 N 1023,5 -
19.01.2019 01:00:00 4,2 0,5 16 9 N 1022,9 0,0
19.01.2019 00:00:00 3,7 0,9 15 8 NE 1022,8 -
18.01.2019 23:00:00 4,3 0,9 11 6 NNE 1022,4 -
18.01.2019 22:00:00 4,9 1,9 11 6 NE 1022,3 -
18.01.2019 21:00:00 5,6 1,8 13 7 NNE 1021,6 -
18.01.2019 20:00:00 5,6 3,1 13 7 NNE 1021,1 -
18.01.2019 19:00:00 6,0 3,3 15 8 NNE 1020,7 0,0
18.01.2019 18:00:00 6,5 4,0 15 8 NE 1020,0 -
18.01.2019 17:00:00 6,0 4,5 18 10 NNE 1019,4 -
18.01.2019 16:00:00 6,6 4,7 22 12 NE 1019,0 -
18.01.2019 15:00:00 7,0 5,5 29 16 NE 1018,9 -
18.01.2019 14:00:00 6,2 4,7 28 15 NE 1018,8 -
18.01.2019 13:00:00 6,1 4,6 28 15 NE 1018,4 0,0
18.01.2019 12:00:00 6,1 4,6 42 23 NE 1016,8 -
18.01.2019 11:00:00 6,0 4,5 13 7 N 1015,8 -
18.01.2019 10:00:00 6,1 4,7 4 2 NNW 1014,7 -
18.01.2019 09:00:00 6,0 4,6 4 2 NW 1013,8 -
18.01.2019 08:00:00 5,9 4,5 2 1 WNW 1013,1 -
18.01.2019 07:00:00 6,0 4,6 8 4 NNW 1013,2 0,0
18.01.2019 06:00:00 6,1 4,7 4 2 NNW 1013,3 -
18.01.2019 05:00:00 6,0 4,6 4 2 NNW 1013,8 -
18.01.2019 04:00:00 6,2 4,7 4 2 NW 1014,0 -
18.01.2019 03:00:00 6,3 4,8 8 4 NNW 1014,4 -
18.01.2019 02:00:00 6,2 4,7 4 2 N 1015,0 -
18.01.2019 01:00:00 6,3 4,8 9 5 NE 1015,4 0,0
18.01.2019 00:00:00 6,0 4,5 5 3 NNW 1015,8 -
17.01.2019 23:00:00 6,1 4,6 5 3 NNW 1016,1 -
17.01.2019 22:00:00 6,2 4,7 4 2 NNW 1016,5 -
17.01.2019 21:00:00 6,4 4,9 5 3 NNW 1016,7 -
17.01.2019 20:00:00 7,2 5,6 4 2 WNW 1017,0 -
17.01.2019 19:00:00 7,5 5,6 4 2 W 1017,2 0,0
17.01.2019 18:00:00 8,3 5,9 0 0 N 1017,4 -
17.01.2019 17:00:00 8,4 5,8 2 1 NW 1018,0 -
17.01.2019 16:00:00 8,4 5,6 2 1 NNW 1018,2 -
17.01.2019 15:00:00 8,8 4,9 0 0 N 1019,1 -
17.01.2019 14:00:00 9,0 5,1 2 1 NE 1020,0 -
17.01.2019 13:00:00 7,8 6,2 2 1 NNE 1020,9 0,0
17.01.2019 12:00:00 5,6 4,1 0 0 N 1020,9 -
17.01.2019 11:00:00 4,1 2,6 2 1 N 1020,7 -
17.01.2019 10:00:00 3,6 2,1 0 0 N 1020,7 -
17.01.2019 09:00:00 3,9 2,4 4 2 N 1020,8 -
17.01.2019 08:00:00 3,9 2,4 4 2 NW 1020,8 -
17.01.2019 07:00:00 3,5 2,0 0 0 N 1021,2 0,0
17.01.2019 06:00:00 3,3 1,8 0 0 N 1021,9 -
17.01.2019 05:00:00 3,0 1,5 0 0 N 1022,5 -
17.01.2019 04:00:00 3,3 1,8 0 0 N 1022,9 -
17.01.2019 03:00:00 3,3 1,8 5 3 NNW 1023,0 -

tt = temperature
td = dewpoint
ff = wind speed
dd = wind direction
ppp = reduced air pressure
rr = precipitation

Next stations